CW3467 Sant Marti de Canals ES current weather conditions

sailwx.info

Wind from 020 at 8 knots gusting 23

Air temperature 1.7° C
Dewpoint -17.8° C

Last reported at 2017-Jan-17 12:07 UTC.
Time now 2017-Jan-17 15:00 UTC

Location: N 42°14' E 000°59'.
View on Google Maps.

See reports from other nearby stations

  
Tides and Currents Weather Stations Pressure Air Temp Water Temp Dewpoint Dewpoint Depression Visibility Wind Speed Wind Dir Waves Ship Positions
date/time (UTC)wind fromknots sea level pressurealtimeterstation pressurevisibilityair tempwater tempwave heightnotes
2017-Jan-17 12:07 020 8 gusting 23 1.7
2017-Jan-17 11:37 070 4 gusting 14 1.7
2017-Jan-17 10:07 348 7 gusting 18 1.1
2017-Jan-17 09:07 066 5 gusting 8 0.6
2017-Jan-17 07:07 341 8 gusting 28 -0.6
2017-Jan-17 06:37 304 12 gusting 19 -0.6
2017-Jan-17 06:07 060 2 gusting 9 -0.0
2017-Jan-17 05:07 345 13 gusting 22 1.1
2017-Jan-17 04:37 075 15 gusting 28 1.7
2017-Jan-17 03:37 343 4 gusting 15 2.8
2017-Jan-17 02:07 066 4 gusting 8 3.3
2017-Jan-17 01:07 080 5 gusting 10 3.3
2017-Jan-17 00:37 332 5 gusting 8 3.9
2017-Jan-16 22:07 004 2 gusting 6 4.4
2017-Jan-16 21:37 015 5 gusting 8 5.6
2017-Jan-16 21:07 355 3 gusting 14 5.6
2017-Jan-16 19:37 255 11 gusting 19 6.7
2017-Jan-16 18:37 032 13 gusting 31 7.2
2017-Jan-16 17:07 025 8 gusting 19 8.3
2017-Jan-16 15:37 022 7 gusting 20 9.4
2017-Jan-16 15:07 325 8 gusting 18 10.0
2017-Jan-16 13:07 034 5 gusting 11 10.6
2017-Jan-16 12:37 011 3 gusting 12 9.4
2017-Jan-16 12:07 360 5 gusting 15 9.4
2017-Jan-16 11:07 120 5 gusting 12 8.3
2017-Jan-16 10:07 327 2 gusting 6 6.1
2017-Jan-16 09:37 041 3 gusting 9 6.1
2017-Jan-16 08:37 054 3 gusting 5 4.4
2017-Jan-16 08:07 280 2 gusting 4 1.7
2017-Jan-16 07:37 094 1.7
2017-Jan-16 06:37 135 1 gusting 2 1.1
2017-Jan-16 05:07 131 1.7
2017-Jan-16 03:37 112 2.2
2017-Jan-16 02:37 051 6 gusting 9 3.3
2017-Jan-16 01:37 070 6 gusting 12 3.3
2017-Jan-16 00:07 044 6 gusting 9 3.3
2017-Jan-15 23:07 049 6 gusting 12 3.3
2017-Jan-15 22:37 027 5 gusting 10 3.9
2017-Jan-15 21:07 178 7 gusting 15 3.9
2017-Jan-15 20:37 333 6 gusting 15 3.9
2017-Jan-15 20:07 045 6 gusting 18 3.9
2017-Jan-15 19:07 048 6 gusting 13 3.9
2017-Jan-15 17:07 043 5 gusting 15 3.9
2017-Jan-15 15:07 358 12 gusting 20 4.4